createdAt,value
2019-01-12T00:01:35.959Z,50.77
2019-01-12T00:04:05.029Z,41.93
2019-01-12T00:06:33.879Z,50.93
2019-01-12T00:09:02.571Z,48.00
2019-01-12T00:11:31.526Z,49.37
2019-01-12T00:14:01.143Z,41.90
2019-01-12T00:16:29.703Z,51.93
2019-01-12T00:18:58.467Z,47.93
2019-01-12T00:21:27.120Z,60.40
2019-01-12T00:23:55.719Z,54.97
2019-01-12T00:26:24.646Z,40.63
2019-01-12T00:28:53.297Z,51.47
2019-01-12T00:31:21.805Z,38.53
2019-01-12T00:33:50.761Z,58.37
2019-01-12T00:36:19.709Z,40.73
2019-01-12T00:38:48.505Z,59.70
2019-01-12T00:41:17.097Z,32.67
2019-01-12T00:43:45.667Z,47.40
2019-01-12T00:46:14.190Z,37.90
2019-01-12T00:48:42.772Z,34.67
2019-01-12T00:51:11.295Z,44.07
2019-01-12T00:53:39.967Z,42.77
2019-01-12T00:56:08.569Z,54.23
2019-01-12T00:58:37.275Z,49.80
2019-01-12T01:01:05.892Z,43.33
2019-01-12T01:03:35.100Z,58.10
2019-01-12T01:06:03.998Z,54.07
2019-01-12T01:08:32.623Z,41.10
2019-01-12T01:11:01.162Z,50.37
2019-01-12T01:13:29.908Z,49.47
2019-01-12T01:15:58.423Z,61.17
2019-01-12T01:18:27.038Z,52.33
2019-01-12T01:20:55.650Z,49.77
2019-01-12T01:23:24.261Z,42.60
2019-01-12T01:25:55.038Z,40.70
2019-01-12T01:28:24.031Z,43.53
2019-01-12T01:30:52.567Z,48.97
2019-01-12T01:33:27.938Z,54.07
2019-01-12T01:35:51.930Z,45.83
2019-01-12T01:38:20.504Z,49.57
2019-01-12T01:40:49.064Z,35.63
2019-01-12T01:43:17.642Z,37.97
2019-01-12T01:45:46.159Z,35.20
2019-01-12T01:48:14.790Z,58.53
2019-01-12T01:50:43.311Z,42.57
2019-01-12T01:53:11.924Z,47.13
2019-01-12T01:55:40.454Z,55.33
2019-01-12T01:58:09.032Z,46.57
2019-01-12T02:00:37.580Z,37.23
2019-01-12T02:03:06.519Z,55.30
2019-01-12T02:05:35.127Z,48.17
2019-01-12T02:08:03.676Z,41.13
2019-01-12T02:10:32.597Z,43.17
2019-01-12T02:13:01.193Z,41.90
2019-01-12T02:15:29.726Z,42.93
2019-01-12T02:17:58.711Z,49.47
2019-01-12T02:20:27.349Z,60.63
2019-01-12T02:22:55.867Z,50.40
2019-01-12T02:25:24.491Z,52.60
2019-01-12T02:27:53.103Z,54.20
2019-01-12T02:30:22.846Z,60.87
2019-01-12T02:32:51.449Z,45.57
2019-01-12T02:35:20.087Z,39.53
2019-01-12T02:37:48.749Z,64.90
2019-01-12T02:40:17.419Z,49.93
2019-01-12T02:42:45.986Z,44.73
2019-01-12T02:45:14.975Z,56.27
2019-01-12T02:47:43.605Z,61.97
2019-01-12T02:50:13.755Z,48.97
2019-01-12T02:52:42.321Z,57.20
2019-01-12T02:55:10.957Z,44.50
2019-01-12T02:57:39.970Z,55.37
2019-01-12T03:00:15.099Z,44.23
2019-01-12T03:02:43.677Z,39.10
2019-01-12T03:05:13.022Z,61.80
2019-01-12T03:07:41.624Z,57.67
2019-01-12T03:10:12.609Z,57.50
2019-01-12T03:12:41.199Z,47.40
2019-01-12T03:15:12.747Z,49.80
2019-01-12T03:17:41.330Z,42.13
2019-01-12T03:20:13.008Z,54.50
2019-01-12T03:22:41.585Z,45.03
2019-01-12T03:25:18.046Z,49.17
2019-01-12T03:27:40.981Z,48.23
2019-01-12T03:30:13.126Z,54.57
2019-01-12T03:32:42.142Z,61.43
2019-01-12T03:35:10.773Z,64.43
2019-01-12T03:37:39.532Z,44.83
2019-01-12T03:40:11.284Z,51.20
2019-01-12T03:42:39.974Z,45.60
2019-01-12T03:45:10.980Z,65.33
2019-01-12T03:47:39.605Z,40.03
2019-01-12T03:50:10.447Z,53.73
2019-01-12T03:52:39.539Z,42.13
2019-01-12T03:55:08.276Z,57.80
2019-01-12T03:57:37.072Z,53.00
2019-01-12T04:00:08.761Z,56.80
2019-01-12T04:02:37.343Z,58.77
2019-01-12T04:05:06.849Z,47.73
2019-01-12T04:07:35.476Z,49.20
2019-01-12T04:10:05.839Z,68.80
2019-01-12T04:12:34.446Z,58.03
2019-01-12T04:15:03.450Z,65.20
2019-01-12T04:17:32.025Z,54.93
2019-01-12T04:20:00.525Z,46.87
2019-01-12T04:22:29.099Z,52.10
2019-01-12T04:24:57.688Z,49.97
2019-01-12T04:27:26.254Z,41.90
2019-01-12T04:29:54.817Z,50.93
2019-01-12T04:32:23.415Z,53.40
2019-01-12T04:34:51.992Z,40.30
2019-01-12T04:37:20.598Z,37.50
2019-01-12T04:39:49.119Z,40.73
2019-01-12T04:42:17.663Z,49.10
2019-01-12T04:44:46.481Z,36.13
2019-01-12T04:47:15.047Z,34.53
2019-01-12T04:49:43.565Z,39.63
2019-01-12T04:52:12.137Z,61.73
2019-01-12T04:54:40.954Z,49.20
2019-01-12T04:57:09.545Z,37.43
2019-01-12T04:59:38.056Z,49.00
2019-01-12T05:02:06.626Z,41.97
2019-01-12T05:04:35.469Z,46.77
2019-01-12T05:07:04.050Z,30.57
2019-01-12T05:09:32.652Z,57.07
2019-01-12T05:12:01.190Z,38.13
2019-01-12T05:14:29.836Z,44.07
2019-01-12T05:16:58.415Z,43.03
2019-01-12T05:19:27.116Z,43.83
2019-01-12T05:21:55.930Z,31.73
2019-01-12T05:24:25.049Z,43.07
2019-01-12T05:26:53.853Z,60.63
2019-01-12T05:29:22.479Z,46.87
2019-01-12T05:31:50.983Z,31.77
2019-01-12T05:34:19.684Z,43.77
2019-01-12T05:36:48.574Z,37.83
2019-01-12T05:39:17.409Z,31.93
2019-01-12T05:41:45.995Z,52.80
2019-01-12T05:44:14.602Z,34.20
2019-01-12T05:46:43.462Z,32.30
2019-01-12T05:49:12.069Z,34.83
2019-01-12T05:51:40.627Z,33.97
2019-01-12T05:54:09.226Z,29.43
2019-01-12T05:56:37.856Z,36.03
2019-01-12T05:59:06.715Z,45.47
2019-01-12T06:01:35.269Z,32.00
2019-01-12T06:04:04.337Z,37.90
2019-01-12T06:06:33.214Z,37.77
2019-01-12T06:09:01.865Z,32.03
2019-01-12T06:11:30.420Z,36.90
2019-01-12T06:13:59.027Z,41.40
2019-01-12T06:16:27.581Z,34.67
2019-01-12T06:18:56.187Z,33.20
2019-01-12T06:21:24.749Z,32.00
2019-01-12T06:23:53.347Z,33.13
2019-01-12T06:26:21.849Z,47.33
2019-01-12T06:28:50.418Z,34.17
2019-01-12T06:31:18.932Z,31.60
2019-01-12T06:33:47.541Z,30.87
2019-01-12T06:36:16.614Z,36.07
2019-01-12T06:38:45.175Z,27.73
2019-01-12T06:41:13.685Z,41.80
2019-01-12T06:43:42.261Z,29.90
2019-01-12T06:46:10.774Z,39.30
2019-01-12T06:48:39.332Z,41.10
2019-01-12T06:51:07.853Z,29.03
2019-01-12T06:53:36.748Z,32.27
2019-01-12T06:56:10.851Z,32.63
2019-01-12T06:58:35.532Z,35.20
2019-01-12T07:01:04.037Z,44.60
2019-01-12T07:03:32.733Z,34.30
2019-01-12T07:06:01.290Z,68.30
2019-01-12T07:08:29.865Z,53.90
2019-01-12T07:10:58.450Z,35.53
2019-01-12T07:13:27.031Z,39.30
2019-01-12T07:15:55.658Z,44.13
2019-01-12T07:18:24.319Z,36.87
2019-01-12T07:20:52.936Z,38.90
2019-01-12T07:23:21.505Z,36.67
2019-01-12T07:25:50.080Z,37.60
2019-01-12T07:28:18.794Z,38.03
2019-01-12T07:30:47.759Z,42.30
2019-01-12T07:33:16.824Z,32.17
2019-01-12T07:35:45.456Z,31.23
2019-01-12T07:38:14.116Z,36.33
2019-01-12T07:40:42.718Z,28.83
2019-01-12T07:43:11.588Z,35.60
2019-01-12T07:45:40.791Z,35.77
2019-01-12T07:48:09.335Z,35.63
2019-01-12T07:50:38.363Z,38.63
2019-01-12T07:53:07.731Z,35.10
2019-01-12T07:55:37.132Z,39.50
2019-01-12T07:58:05.772Z,30.43
2019-01-12T08:00:34.440Z,38.63
2019-01-12T08:03:03.135Z,44.43
2019-01-12T08:05:54.391Z,24.30
2019-01-12T08:08:31.161Z,32.90
2019-01-12T08:11:01.736Z,38.10
2019-01-12T08:13:30.323Z,37.27
2019-01-12T08:15:59.583Z,33.63
2019-01-12T08:18:28.115Z,33.17
2019-01-12T08:20:56.708Z,36.43
2019-01-12T08:23:25.235Z,38.37
2019-01-12T08:25:53.896Z,31.77
2019-01-12T08:28:22.911Z,35.37
2019-01-12T08:30:51.496Z,33.43
2019-01-12T08:33:20.141Z,28.67
2019-01-12T08:35:48.808Z,32.47
2019-01-12T08:38:17.653Z,28.93
2019-01-12T08:40:46.347Z,41.10
2019-01-12T08:43:14.981Z,37.60
2019-01-12T08:45:43.775Z,29.50
2019-01-12T08:48:12.385Z,40.37
2019-01-12T08:50:40.940Z,34.60
2019-01-12T08:53:09.487Z,34.53
2019-01-12T08:55:38.076Z,33.73
2019-01-12T08:58:06.983Z,24.90
2019-01-12T09:00:35.609Z,32.27
2019-01-12T09:03:04.302Z,34.07
2019-01-12T09:05:33.054Z,32.73
2019-01-12T09:08:01.634Z,24.37
2019-01-12T09:10:30.722Z,21.57
2019-01-12T09:12:59.816Z,25.57
2019-01-12T09:15:28.433Z,20.97
2019-01-12T09:17:57.131Z,16.10
2019-01-12T09:20:25.852Z,19.93
2019-01-12T09:22:54.369Z,15.73
2019-01-12T09:25:23.208Z,25.17
2019-01-12T09:27:51.836Z,7.40
2019-01-12T09:30:21.155Z,7.80
2019-01-12T09:32:50.734Z,7.90
2019-01-12T09:35:19.356Z,12.43
2019-01-12T09:37:47.854Z,6.43
2019-01-12T09:40:18.435Z,8.37
2019-01-12T09:42:47.145Z,13.10
2019-01-12T09:45:17.886Z,21.03
2019-01-12T09:47:46.701Z,6.90
2019-01-12T09:50:17.667Z,7.87
2019-01-12T09:52:46.746Z,7.03
2019-01-12T09:55:15.468Z,8.03
2019-01-12T09:57:43.987Z,8.87
2019-01-12T10:00:23.527Z,21.17
2019-01-12T10:02:52.616Z,8.13
2019-01-12T10:05:21.285Z,9.47
2019-01-12T10:07:49.970Z,13.13
2019-01-12T10:10:20.338Z,5.00
2019-01-12T10:12:49.087Z,3.63
2019-01-12T10:15:17.657Z,4.87
2019-01-12T10:17:46.410Z,10.00
2019-01-12T10:20:17.055Z,6.03
2019-01-12T10:22:46.265Z,6.70
2019-01-12T10:25:15.708Z,7.53
2019-01-12T10:27:44.351Z,5.33
2019-01-12T10:30:21.169Z,6.10
2019-01-12T10:32:49.828Z,6.37
2019-01-12T10:35:18.414Z,5.67
2019-01-12T10:37:47.076Z,6.30
2019-01-12T10:40:18.449Z,5.00
2019-01-12T10:42:48.356Z,4.03
2019-01-12T10:45:19.668Z,5.20
2019-01-12T10:47:48.496Z,2.33
2019-01-12T10:50:20.523Z,6.43
2019-01-12T10:52:49.187Z,5.20
2019-01-12T10:55:17.800Z,2.20
2019-01-12T10:57:46.708Z,11.13
2019-01-12T11:00:21.428Z,4.30
2019-01-12T11:02:50.744Z,2.40
2019-01-12T11:05:19.522Z,2.03
2019-01-12T11:07:48.549Z,3.00
2019-01-12T11:10:17.192Z,2.30
2019-01-12T11:12:45.817Z,4.93
2019-01-12T11:15:17.615Z,5.40
2019-01-12T11:17:46.324Z,7.37
2019-01-12T11:20:14.938Z,2.93
2019-01-12T11:22:43.599Z,5.43
2019-01-12T11:25:14.084Z,3.33
2019-01-12T11:27:42.820Z,2.87
2019-01-12T11:30:16.923Z,3.43
2019-01-12T11:32:45.606Z,2.60
2019-01-12T11:35:14.194Z,4.43
2019-01-12T11:37:43.177Z,2.30
2019-01-12T11:40:14.747Z,2.40
2019-01-12T11:42:43.746Z,2.50
2019-01-12T11:45:12.433Z,2.00
2019-01-12T11:47:41.090Z,2.60
2019-01-12T11:50:12.360Z,2.90
2019-01-12T11:52:41.044Z,2.47
2019-01-12T11:55:11.784Z,4.30
2019-01-12T11:57:40.467Z,3.60
2019-01-12T12:00:18.091Z,4.83
2019-01-12T12:02:46.777Z,3.30
2019-01-12T12:05:15.418Z,4.10
2019-01-12T12:07:44.339Z,4.80
2019-01-12T12:10:15.584Z,4.30
2019-01-12T12:12:44.424Z,11.43
2019-01-12T12:15:15.942Z,5.40
2019-01-12T12:17:44.552Z,8.73
2019-01-12T12:20:19.110Z,4.17
2019-01-12T12:22:47.708Z,3.67
2019-01-12T12:25:16.519Z,3.90
2019-01-12T12:27:45.610Z,6.73
2019-01-12T12:30:19.805Z,3.03
2019-01-12T12:32:49.539Z,5.27
2019-01-12T12:35:18.220Z,3.17
2019-01-12T12:37:46.885Z,5.20
2019-01-12T12:40:18.983Z,4.43
2019-01-12T12:42:47.729Z,5.50
2019-01-12T12:45:18.969Z,3.20
2019-01-12T12:47:47.906Z,3.70
2019-01-12T12:50:17.554Z,3.20
2019-01-12T12:52:46.355Z,3.37
2019-01-12T12:55:17.288Z,4.80
2019-01-12T12:57:46.239Z,3.50
2019-01-12T13:00:17.695Z,2.47
2019-01-12T13:02:46.973Z,2.83
2019-01-12T13:05:17.082Z,2.53
2019-01-12T13:07:46.650Z,7.13
2019-01-12T13:10:18.044Z,3.63
2019-01-12T13:12:47.086Z,3.77
2019-01-12T13:15:15.812Z,3.57
2019-01-12T13:17:45.355Z,3.93
2019-01-12T13:20:16.705Z,3.90
2019-01-12T13:22:45.888Z,3.70
2019-01-12T13:25:15.212Z,3.40
2019-01-12T13:27:44.484Z,5.70
2019-01-12T13:30:19.256Z,3.87
2019-01-12T13:32:48.363Z,8.73
2019-01-12T13:35:18.347Z,3.20
2019-01-12T13:37:48.082Z,3.97
2019-01-12T13:40:21.643Z,2.90
2019-01-12T13:42:51.249Z,5.63
2019-01-12T13:45:21.094Z,5.33
2019-01-12T13:47:49.800Z,11.00
2019-01-12T13:50:20.948Z,7.60
2019-01-12T13:52:49.709Z,7.53
2019-01-12T13:55:18.549Z,10.43
2019-01-12T13:57:48.194Z,8.23
2019-01-12T14:00:20.066Z,10.80
2019-01-12T14:02:50.433Z,17.37
2019-01-12T14:05:19.813Z,4.93
2019-01-12T14:07:55.832Z,10.43
2019-01-12T14:10:20.118Z,39.80
2019-01-12T14:12:48.922Z,19.27
2019-01-12T14:15:19.165Z,15.23
2019-01-12T14:17:48.278Z,13.37
2019-01-12T14:20:25.060Z,5.67
2019-01-12T14:22:53.759Z,9.73
2019-01-12T14:25:22.546Z,19.70
2019-01-12T14:27:54.805Z,16.10
2019-01-12T14:30:22.007Z,29.97
2019-01-12T14:32:50.948Z,11.83
2019-01-12T14:35:21.409Z,21.27
2019-01-12T14:37:52.352Z,19.13
2019-01-12T14:40:22.263Z,27.43
2019-01-12T14:42:51.068Z,18.63
2019-01-12T14:45:31.051Z,8.27
2019-01-12T14:47:59.815Z,26.53
2019-01-12T14:50:28.833Z,12.23
2019-01-12T14:52:57.527Z,6.83
2019-01-12T14:55:26.691Z,12.33
2019-01-12T14:58:02.024Z,8.63
2019-01-12T15:00:27.506Z,8.83
2019-01-12T15:02:56.354Z,12.13
2019-01-12T15:05:27.419Z,9.17
2019-01-12T15:07:56.380Z,6.70
2019-01-12T15:10:25.027Z,6.40
2019-01-12T15:12:55.712Z,9.20
2019-01-12T15:15:24.756Z,6.33
2019-01-12T15:17:54.613Z,5.30
2019-01-12T15:20:26.155Z,11.43
2019-01-12T15:22:54.879Z,11.20
2019-01-12T15:25:24.703Z,6.53
2019-01-12T15:27:53.750Z,5.80
2019-01-12T15:30:24.993Z,12.57
2019-01-12T15:32:55.988Z,4.73
2019-01-12T15:35:27.769Z,4.87
2019-01-12T15:37:57.213Z,5.53
2019-01-12T15:40:26.199Z,5.30
2019-01-12T15:42:57.083Z,4.60
2019-01-12T15:45:27.851Z,5.77
2019-01-12T15:47:57.429Z,4.87
2019-01-12T15:50:27.830Z,5.60
2019-01-12T15:52:57.277Z,4.87
2019-01-12T15:55:26.461Z,8.97
2019-01-12T15:57:56.062Z,5.47
2019-01-12T16:00:26.892Z,5.73
2019-01-12T16:02:56.158Z,6.30
2019-01-12T16:05:25.676Z,5.90
2019-01-12T16:07:57.631Z,5.53
2019-01-12T16:10:26.783Z,5.37
2019-01-12T16:12:56.734Z,4.90
2019-01-12T16:15:26.008Z,5.23
2019-01-12T16:17:55.926Z,5.67
2019-01-12T16:20:30.999Z,6.50
2019-01-12T16:22:59.733Z,5.83
2019-01-12T16:25:30.298Z,5.60
2019-01-12T16:27:59.980Z,5.80
2019-01-12T16:30:29.991Z,6.13
2019-01-12T16:32:58.971Z,6.87
2019-01-12T16:35:28.173Z,6.10
2019-01-12T16:37:56.984Z,6.20
2019-01-12T16:40:26.930Z,5.97
2019-01-12T16:42:56.478Z,6.27
2019-01-12T16:45:25.431Z,6.37
2019-01-12T16:47:54.925Z,5.37
2019-01-12T16:50:25.015Z,5.70
2019-01-12T16:52:54.739Z,5.77
2019-01-12T16:55:24.232Z,6.00
2019-01-12T16:57:53.295Z,5.63
2019-01-12T17:00:27.289Z,5.70
2019-01-12T17:02:57.313Z,4.90
2019-01-12T17:05:27.300Z,5.53
2019-01-12T17:07:57.422Z,4.30
2019-01-12T17:10:26.739Z,5.03
2019-01-12T17:12:56.581Z,5.73
2019-01-12T17:15:26.717Z,5.30
2019-01-12T17:17:56.249Z,9.10
2019-01-12T17:20:30.236Z,5.63
2019-01-12T17:23:00.252Z,5.50
2019-01-12T17:25:29.430Z,7.33
2019-01-12T17:27:59.075Z,6.27
2019-01-12T17:30:28.300Z,6.43
2019-01-12T17:32:58.270Z,6.13
2019-01-12T17:35:29.445Z,7.20
2019-01-12T17:37:58.691Z,6.73
2019-01-12T17:40:30.485Z,7.23
2019-01-12T17:43:01.540Z,6.20
2019-01-12T17:45:35.814Z,10.00
2019-01-12T17:48:06.564Z,7.33
2019-01-12T17:50:35.578Z,7.40
2019-01-12T17:53:05.122Z,7.97
2019-01-12T17:55:36.031Z,7.30
2019-01-12T17:58:06.567Z,23.10
2019-01-12T18:00:45.845Z,8.93
2019-01-12T18:03:17.010Z,9.10
2019-01-12T18:05:47.282Z,10.50
2019-01-12T18:08:17.063Z,16.10
2019-01-12T18:10:47.178Z,26.47
2019-01-12T18:13:16.022Z,16.03
2019-01-12T18:15:45.561Z,14.83
2019-01-12T18:18:16.543Z,28.67
2019-01-12T18:20:48.987Z,11.90
2019-01-12T18:23:20.339Z,16.43
2019-01-12T18:25:49.701Z,22.53
2019-01-12T18:28:18.808Z,14.00
2019-01-12T18:30:47.950Z,19.10
2019-01-12T18:33:17.002Z,18.43
2019-01-12T18:35:47.443Z,14.50
2019-01-12T18:38:16.630Z,14.40
2019-01-12T18:40:48.406Z,17.60
2019-01-12T18:43:17.905Z,19.27
2019-01-12T18:45:49.070Z,21.30
2019-01-12T18:48:19.006Z,13.37
2019-01-12T18:50:48.476Z,11.60
2019-01-12T18:53:17.840Z,12.87
2019-01-12T18:55:46.753Z,11.27
2019-01-12T18:58:17.211Z,12.63
2019-01-12T19:00:49.110Z,14.60
2019-01-12T19:03:19.389Z,14.10
2019-01-12T19:05:49.966Z,11.87
2019-01-12T19:08:21.528Z,11.47
2019-01-12T19:10:52.191Z,9.67
2019-01-12T19:13:23.570Z,9.80
2019-01-12T19:15:55.097Z,10.03
2019-01-12T19:18:24.118Z,10.63
2019-01-12T19:20:53.550Z,10.87
2019-01-12T19:23:23.849Z,9.20
2019-01-12T19:25:53.980Z,8.93
2019-01-12T19:28:25.009Z,17.67
2019-01-12T19:30:57.231Z,8.83
2019-01-12T19:33:33.815Z,8.30
2019-01-12T19:36:04.835Z,11.73
2019-01-12T19:38:34.866Z,10.90
2019-01-12T19:41:05.844Z,8.20
2019-01-12T19:43:35.589Z,9.83
2019-01-12T19:46:05.148Z,13.20
2019-01-12T19:48:35.417Z,10.67
2019-01-12T19:51:04.747Z,9.70
2019-01-12T19:53:34.619Z,8.17
2019-01-12T19:56:05.681Z,7.63
2019-01-12T19:58:36.768Z,8.87
2019-01-12T20:01:06.471Z,9.80
2019-01-12T20:03:37.915Z,12.83
2019-01-12T20:06:07.321Z,10.90
2019-01-12T20:08:38.370Z,8.90
2019-01-12T20:11:07.583Z,9.90
2019-01-12T20:13:38.615Z,13.13
2019-01-12T20:16:10.276Z,13.27
2019-01-12T20:18:40.571Z,12.83
2019-01-12T20:21:10.277Z,8.43
2019-01-12T20:23:40.071Z,11.00
2019-01-12T20:26:09.007Z,10.37
2019-01-12T20:28:43.789Z,15.53
2019-01-12T20:31:18.708Z,11.40
2019-01-12T20:33:51.011Z,9.00
2019-01-12T20:36:45.402Z,10.70
2019-01-12T20:39:24.471Z,10.43
2019-01-12T20:42:11.498Z,8.50
2019-01-12T20:44:47.487Z,8.50
2019-01-12T20:47:26.399Z,11.93
2019-01-12T20:49:58.934Z,14.37
2019-01-12T20:52:44.155Z,9.83
2019-01-12T20:55:16.021Z,8.50
2019-01-12T20:57:48.161Z,14.23
2019-01-12T21:00:20.139Z,13.27
2019-01-12T21:03:09.745Z,17.30
2019-01-12T21:05:47.757Z,15.10
2019-01-12T21:08:25.968Z,7.93
2019-01-12T21:11:06.828Z,14.53
2019-01-12T21:14:04.603Z,10.97
2019-01-12T21:16:35.525Z,12.13
2019-01-12T21:19:04.542Z,11.30
2019-01-12T21:21:33.960Z,9.90
2019-01-12T21:24:03.400Z,5.70
2019-01-12T21:26:34.257Z,5.73
2019-01-12T21:29:03.130Z,8.80
2019-01-12T21:31:33.113Z,16.23
2019-01-12T21:34:03.948Z,5.10
2019-01-12T21:36:34.450Z,7.57
2019-01-12T21:39:04.955Z,8.80
2019-01-12T21:41:33.913Z,13.80
2019-01-12T21:44:03.509Z,6.47
2019-01-12T21:46:41.130Z,8.23
2019-01-12T21:49:10.669Z,7.17
2019-01-12T21:51:40.481Z,6.27
2019-01-12T21:54:11.148Z,7.47
2019-01-12T21:56:39.912Z,6.97
2019-01-12T21:59:08.836Z,11.40
2019-01-12T22:01:39.024Z,9.43
2019-01-12T22:04:08.887Z,6.97
2019-01-12T22:06:39.072Z,8.40
2019-01-12T22:09:09.078Z,5.47
2019-01-12T22:11:38.808Z,8.80
2019-01-12T22:14:07.561Z,5.07
2019-01-12T22:16:36.225Z,7.83
2019-01-12T22:19:07.529Z,6.97
2019-01-12T22:21:36.479Z,9.43
2019-01-12T22:24:05.166Z,12.53
2019-01-12T22:26:34.201Z,6.20
2019-01-12T22:29:02.833Z,9.40
2019-01-12T22:31:31.624Z,6.57
2019-01-12T22:34:01.925Z,6.90
2019-01-12T22:36:31.247Z,5.00
2019-01-12T22:39:00.699Z,9.57
2019-01-12T22:41:29.320Z,12.87
2019-01-12T22:43:58.003Z,6.83
2019-01-12T22:46:26.690Z,9.03
2019-01-12T22:48:55.442Z,13.10
2019-01-12T22:51:26.119Z,16.83
2019-01-12T22:53:54.952Z,7.97
2019-01-12T22:56:24.069Z,12.30
2019-01-12T22:58:55.167Z,20.60
2019-01-12T23:01:27.843Z,21.37
2019-01-12T23:03:56.721Z,20.07
2019-01-12T23:06:29.725Z,4.50
2019-01-12T23:08:58.981Z,9.47
2019-01-12T23:11:29.075Z,8.67
2019-01-12T23:13:59.719Z,8.97
2019-01-12T23:16:28.441Z,8.60
2019-01-12T23:18:57.021Z,16.13
2019-01-12T23:21:26.245Z,6.37
2019-01-12T23:23:55.649Z,5.87
2019-01-12T23:26:26.551Z,8.70
2019-01-12T23:28:56.109Z,4.70
2019-01-12T23:31:26.085Z,6.20
2019-01-12T23:33:54.982Z,5.90
2019-01-12T23:36:25.606Z,9.53
2019-01-12T23:38:54.996Z,5.93
2019-01-12T23:41:23.654Z,5.60
2019-01-12T23:43:53.195Z,5.57
2019-01-12T23:46:22.017Z,6.80
2019-01-12T23:48:50.953Z,4.13
2019-01-12T23:51:19.517Z,6.17
2019-01-12T23:53:48.205Z,5.00
2019-01-12T23:56:16.986Z,9.70
2019-01-12T23:58:48.861Z,10.83
